sensor_id;sensor_type;location;lat;lon;timestamp;P1;durP1;ratioP1;P2;durP2;ratioP2
64678;SDS011;51094;53.864;27.676;2022-07-29T00:02:15;0.60;;;0.60;;
64678;SDS011;51094;53.864;27.676;2022-07-29T00:04:41;0.60;;;0.60;;
64678;SDS011;51094;53.864;27.676;2022-07-29T00:07:08;0.60;;;0.60;;
64678;SDS011;51094;53.864;27.676;2022-07-29T00:09:36;0.70;;;0.70;;
64678;SDS011;51094;53.864;27.676;2022-07-29T00:12:17;0.60;;;0.60;;
64678;SDS011;51094;53.864;27.676;2022-07-29T00:14:52;0.52;;;0.52;;
64678;SDS011;51094;53.864;27.676;2022-07-29T00:17:20;0.60;;;0.60;;
64678;SDS011;51094;53.864;27.676;2022-07-29T00:19:46;0.47;;;0.47;;
64678;SDS011;51094;53.864;27.676;2022-07-29T00:22:13;0.60;;;0.60;;
64678;SDS011;51094;53.864;27.676;2022-07-29T00:24:40;0.70;;;0.70;;
64678;SDS011;51094;53.864;27.676;2022-07-29T00:27:06;0.60;;;0.60;;
64678;SDS011;51094;53.864;27.676;2022-07-29T00:29:33;0.40;;;0.40;;
64678;SDS011;51094;53.864;27.676;2022-07-29T00:32:01;0.50;;;0.50;;
64678;SDS011;51094;53.864;27.676;2022-07-29T00:34:29;0.52;;;0.52;;
64678;SDS011;51094;53.864;27.676;2022-07-29T00:37:14;0.57;;;0.57;;
64678;SDS011;51094;53.864;27.676;2022-07-29T00:39:41;0.52;;;0.52;;
64678;SDS011;51094;53.864;27.676;2022-07-29T00:42:08;0.57;;;0.57;;
64678;SDS011;51094;53.864;27.676;2022-07-29T00:44:39;0.40;;;0.40;;
64678;SDS011;51094;53.864;27.676;2022-07-29T00:47:07;0.40;;;0.40;;
64678;SDS011;51094;53.864;27.676;2022-07-29T00:49:34;0.50;;;0.50;;
64678;SDS011;51094;53.864;27.676;2022-07-29T00:52:02;0.50;;;0.50;;
64678;SDS011;51094;53.864;27.676;2022-07-29T00:54:30;0.43;;;0.43;;
64678;SDS011;51094;53.864;27.676;2022-07-29T00:57:09;0.50;;;0.50;;
64678;SDS011;51094;53.864;27.676;2022-07-29T00:59:36;0.55;;;0.55;;
64678;SDS011;51094;53.864;27.676;2022-07-29T01:02:03;0.60;;;0.60;;
64678;SDS011;51094;53.864;27.676;2022-07-29T01:04:30;0.50;;;0.50;;
64678;SDS011;51094;53.864;27.676;2022-07-29T01:06:58;0.60;;;0.60;;
64678;SDS011;51094;53.864;27.676;2022-07-29T01:09:28;0.40;;;0.40;;
64678;SDS011;51094;53.864;27.676;2022-07-29T01:12:16;0.50;;;0.50;;
64678;SDS011;51094;53.864;27.676;2022-07-29T01:14:45;0.60;;;0.60;;
64678;SDS011;51094;53.864;27.676;2022-07-29T01:17:21;0.60;;;0.60;;
64678;SDS011;51094;53.864;27.676;2022-07-29T01:22:36;0.70;;;0.70;;
64678;SDS011;51094;53.864;27.676;2022-07-29T01:31:08;0.60;;;0.60;;
64678;SDS011;51094;53.864;27.676;2022-07-29T01:33:50;0.80;;;0.80;;
64678;SDS011;51094;53.864;27.676;2022-07-29T01:36:31;0.55;;;0.55;;
64678;SDS011;51094;53.864;27.676;2022-07-29T01:39:05;0.80;;;0.80;;
64678;SDS011;51094;53.864;27.676;2022-07-29T01:41:36;0.70;;;0.70;;
64678;SDS011;51094;53.864;27.676;2022-07-29T01:44:17;0.50;;;0.50;;
64678;SDS011;51094;53.864;27.676;2022-07-29T01:46:50;0.70;;;0.70;;
64678;SDS011;51094;53.864;27.676;2022-07-29T01:49:21;0.60;;;0.60;;
64678;SDS011;51094;53.864;27.676;2022-07-29T01:51:54;0.52;;;0.52;;
64678;SDS011;51094;53.864;27.676;2022-07-29T01:54:36;0.70;;;0.70;;
64678;SDS011;51094;53.864;27.676;2022-07-29T01:57:05;0.70;;;0.70;;
64678;SDS011;51094;53.864;27.676;2022-07-29T01:59:34;0.80;;;0.80;;
64678;SDS011;51094;53.864;27.676;2022-07-29T02:02:03;0.75;;;0.75;;
64678;SDS011;51094;53.864;27.676;2022-07-29T02:04:35;0.90;;;0.90;;
64678;SDS011;51094;53.864;27.676;2022-07-29T02:07:04;0.85;;;0.85;;
64678;SDS011;51094;53.864;27.676;2022-07-29T02:09:33;0.90;;;0.90;;
64678;SDS011;51094;53.864;27.676;2022-07-29T02:12:02;0.82;;;0.82;;
64678;SDS011;51094;53.864;27.676;2022-07-29T02:14:31;0.95;;;0.95;;
64678;SDS011;51094;53.864;27.676;2022-07-29T02:17:03;1.00;;;1.00;;
64678;SDS011;51094;53.864;27.676;2022-07-29T02:19:30;1.00;;;1.00;;
64678;SDS011;51094;53.864;27.676;2022-07-29T02:21:59;1.10;;;1.10;;
64678;SDS011;51094;53.864;27.676;2022-07-29T02:24:27;0.95;;;0.95;;
64678;SDS011;51094;53.864;27.676;2022-07-29T02:26:56;1.05;;;1.05;;
64678;SDS011;51094;53.864;27.676;2022-07-29T02:29:26;0.90;;;0.90;;
64678;SDS011;51094;53.864;27.676;2022-07-29T02:31:54;0.90;;;0.90;;
64678;SDS011;51094;53.864;27.676;2022-07-29T02:34:25;1.00;;;1.00;;
64678;SDS011;51094;53.864;27.676;2022-07-29T02:36:53;0.82;;;0.82;;
64678;SDS011;51094;53.864;27.676;2022-07-29T02:39:22;1.20;;;1.20;;
64678;SDS011;51094;53.864;27.676;2022-07-29T02:41:51;0.90;;;0.90;;
64678;SDS011;51094;53.864;27.676;2022-07-29T02:44:21;1.02;;;1.02;;
64678;SDS011;51094;53.864;27.676;2022-07-29T02:49:44;1.00;;;1.00;;
64678;SDS011;51094;53.864;27.676;2022-07-29T03:00:55;1.80;;;1.80;;
64678;SDS011;51094;53.864;27.676;2022-07-29T03:03:25;2.38;;;2.28;;
64678;SDS011;51094;53.864;27.676;2022-07-29T03:05:54;2.50;;;2.50;;
64678;SDS011;51094;53.864;27.676;2022-07-29T03:08:23;2.60;;;2.60;;
64678;SDS011;51094;53.864;27.676;2022-07-29T03:10:50;2.58;;;2.53;;
64678;SDS011;51094;53.864;27.676;2022-07-29T03:13:18;2.22;;;2.22;;
64678;SDS011;51094;53.864;27.676;2022-07-29T03:15:45;2.30;;;2.30;;
64678;SDS011;51094;53.864;27.676;2022-07-29T03:18:13;2.13;;;2.13;;
64678;SDS011;51094;53.864;27.676;2022-07-29T03:20:41;2.25;;;2.25;;
64678;SDS011;51094;53.864;27.676;2022-07-29T03:23:08;2.05;;;2.05;;
64678;SDS011;51094;53.864;27.676;2022-07-29T03:25:35;2.10;;;2.10;;
64678;SDS011;51094;53.864;27.676;2022-07-29T03:28:02;1.95;;;1.95;;
64678;SDS011;51094;53.864;27.676;2022-07-29T03:30:28;1.50;;;1.50;;
64678;SDS011;51094;53.864;27.676;2022-07-29T03:32:57;1.30;;;1.30;;
64678;SDS011;51094;53.864;27.676;2022-07-29T03:35:24;1.10;;;1.10;;
64678;SDS011;51094;53.864;27.676;2022-07-29T03:37:51;0.90;;;0.90;;
64678;SDS011;51094;53.864;27.676;2022-07-29T03:40:19;0.70;;;0.70;;
64678;SDS011;51094;53.864;27.676;2022-07-29T03:42:49;0.55;;;0.55;;
64678;SDS011;51094;53.864;27.676;2022-07-29T03:45:18;0.70;;;0.70;;
64678;SDS011;51094;53.864;27.676;2022-07-29T03:47:47;0.75;;;0.75;;
64678;SDS011;51094;53.864;27.676;2022-07-29T03:50:22;0.70;;;0.70;;
64678;SDS011;51094;53.864;27.676;2022-07-29T03:52:49;0.70;;;0.70;;
64678;SDS011;51094;53.864;27.676;2022-07-29T03:55:15;0.52;;;0.52;;
64678;SDS011;51094;53.864;27.676;2022-07-29T03:57:43;0.47;;;0.47;;
64678;SDS011;51094;53.864;27.676;2022-07-29T04:00:11;0.50;;;0.50;;
64678;SDS011;51094;53.864;27.676;2022-07-29T04:02:38;0.45;;;0.45;;
64678;SDS011;51094;53.864;27.676;2022-07-29T04:05:11;0.50;;;0.50;;
64678;SDS011;51094;53.864;27.676;2022-07-29T04:07:38;0.50;;;0.50;;
64678;SDS011;51094;53.864;27.676;2022-07-29T04:10:05;0.38;;;0.38;;
64678;SDS011;51094;53.864;27.676;2022-07-29T04:12:32;0.40;;;0.40;;
64678;SDS011;51094;53.864;27.676;2022-07-29T04:14:59;0.50;;;0.50;;
64678;SDS011;51094;53.864;27.676;2022-07-29T04:17:25;0.40;;;0.40;;
64678;SDS011;51094;53.864;27.676;2022-07-29T04:19:52;0.60;;;0.60;;
64678;SDS011;51094;53.864;27.676;2022-07-29T04:22:19;0.55;;;0.55;;
64678;SDS011;51094;53.864;27.676;2022-07-29T04:24:45;0.40;;;0.40;;
64678;SDS011;51094;53.864;27.676;2022-07-29T04:27:12;0.40;;;0.40;;
64678;SDS011;51094;53.864;27.676;2022-07-29T04:29:39;0.38;;;0.38;;
64678;SDS011;51094;53.864;27.676;2022-07-29T04:32:23;0.40;;;0.40;;
64678;SDS011;51094;53.864;27.676;2022-07-29T04:34:53;0.43;;;0.43;;
64678;SDS011;51094;53.864;27.676;2022-07-29T04:37:19;0.40;;;0.40;;
64678;SDS011;51094;53.864;27.676;2022-07-29T04:39:46;0.40;;;0.40;;
64678;SDS011;51094;53.864;27.676;2022-07-29T04:42:13;0.40;;;0.40;;
64678;SDS011;51094;53.864;27.676;2022-07-29T04:44:39;0.50;;;0.50;;
64678;SDS011;51094;53.864;27.676;2022-07-29T04:47:08;0.50;;;0.50;;
64678;SDS011;51094;53.864;27.676;2022-07-29T04:49:37;0.40;;;0.40;;
64678;SDS011;51094;53.864;27.676;2022-07-29T04:52:05;0.50;;;0.50;;
64678;SDS011;51094;53.864;27.676;2022-07-29T04:54:32;0.50;;;0.50;;
64678;SDS011;51094;53.864;27.676;2022-07-29T04:56:59;0.50;;;0.50;;
64678;SDS011;51094;53.864;27.676;2022-07-29T04:59:25;0.45;;;0.45;;
64678;SDS011;51094;53.864;27.676;2022-07-29T05:01:52;0.50;;;0.50;;
64678;SDS011;51094;53.864;27.676;2022-07-29T05:04:19;0.35;;;0.35;;
64678;SDS011;51094;53.864;27.676;2022-07-29T05:06:46;0.50;;;0.50;;
64678;SDS011;51094;53.864;27.676;2022-07-29T05:09:13;0.40;;;0.40;;
64678;SDS011;51094;53.864;27.676;2022-07-29T05:11:39;0.50;;;0.50;;
64678;SDS011;51094;53.864;27.676;2022-07-29T05:14:06;0.50;;;0.50;;
64678;SDS011;51094;53.864;27.676;2022-07-29T05:16:33;0.40;;;0.40;;
64678;SDS011;51094;53.864;27.676;2022-07-29T05:18:59;0.40;;;0.40;;
64678;SDS011;51094;53.864;27.676;2022-07-29T05:21:26;0.50;;;0.50;;
64678;SDS011;51094;53.864;27.676;2022-07-29T05:23:53;0.50;;;0.50;;
64678;SDS011;51094;53.864;27.676;2022-07-29T05:26:19;0.73;;;0.73;;
64678;SDS011;51094;53.864;27.676;2022-07-29T05:28:46;0.50;;;0.50;;
64678;SDS011;51094;53.864;27.676;2022-07-29T05:31:13;0.50;;;0.50;;
64678;SDS011;51094;53.864;27.676;2022-07-29T05:33:41;0.47;;;0.47;;
64678;SDS011;51094;53.864;27.676;2022-07-29T05:36:08;0.50;;;0.50;;
64678;SDS011;51094;53.864;27.676;2022-07-29T05:38:35;0.60;;;0.60;;
64678;SDS011;51094;53.864;27.676;2022-07-29T05:41:02;0.50;;;0.50;;
64678;SDS011;51094;53.864;27.676;2022-07-29T05:43:30;0.50;;;0.50;;
64678;SDS011;51094;53.864;27.676;2022-07-29T05:45:57;0.68;;;0.68;;
64678;SDS011;51094;53.864;27.676;2022-07-29T05:48:24;0.40;;;0.40;;
64678;SDS011;51094;53.864;27.676;2022-07-29T05:50:51;0.40;;;0.40;;
64678;SDS011;51094;53.864;27.676;2022-07-29T05:53:18;0.60;;;0.60;;
64678;SDS011;51094;53.864;27.676;2022-07-29T05:55:46;0.60;;;0.60;;
64678;SDS011;51094;53.864;27.676;2022-07-29T05:58:15;0.47;;;0.47;;
64678;SDS011;51094;53.864;27.676;2022-07-29T06:00:42;0.60;;;0.60;;
64678;SDS011;51094;53.864;27.676;2022-07-29T06:03:09;0.90;;;0.90;;
64678;SDS011;51094;53.864;27.676;2022-07-29T06:05:36;0.55;;;0.55;;
64678;SDS011;51094;53.864;27.676;2022-07-29T06:08:03;0.60;;;0.60;;
64678;SDS011;51094;53.864;27.676;2022-07-29T06:10:31;0.60;;;0.60;;
64678;SDS011;51094;53.864;27.676;2022-07-29T06:12:59;1.00;;;1.00;;
64678;SDS011;51094;53.864;27.676;2022-07-29T06:15:25;1.50;;;1.50;;
64678;SDS011;51094;53.864;27.676;2022-07-29T06:17:52;1.58;;;1.48;;
64678;SDS011;51094;53.864;27.676;2022-07-29T06:20:29;1.10;;;1.10;;
64678;SDS011;51094;53.864;27.676;2022-07-29T06:22:57;1.58;;;1.58;;
64678;SDS011;51094;53.864;27.676;2022-07-29T06:25:25;1.00;;;1.00;;
64678;SDS011;51094;53.864;27.676;2022-07-29T06:27:52;0.90;;;0.90;;
64678;SDS011;51094;53.864;27.676;2022-07-29T06:30:18;0.90;;;0.90;;
64678;SDS011;51094;53.864;27.676;2022-07-29T06:32:45;1.20;;;1.20;;
64678;SDS011;51094;53.864;27.676;2022-07-29T06:35:12;0.70;;;0.70;;
64678;SDS011;51094;53.864;27.676;2022-07-29T06:37:59;0.70;;;0.70;;
64678;SDS011;51094;53.864;27.676;2022-07-29T06:40:25;0.77;;;0.77;;
64678;SDS011;51094;53.864;27.676;2022-07-29T06:43:14;0.80;;;0.80;;
64678;SDS011;51094;53.864;27.676;2022-07-29T06:45:41;0.80;;;0.80;;
64678;SDS011;51094;53.864;27.676;2022-07-29T06:48:09;0.90;;;0.90;;
64678;SDS011;51094;53.864;27.676;2022-07-29T06:50:36;0.90;;;0.90;;
64678;SDS011;51094;53.864;27.676;2022-07-29T06:53:03;0.80;;;0.80;;
64678;SDS011;51094;53.864;27.676;2022-07-29T06:55:30;1.65;;;1.65;;
64678;SDS011;51094;53.864;27.676;2022-07-29T06:57:56;2.00;;;2.00;;
64678;SDS011;51094;53.864;27.676;2022-07-29T07:00:23;1.70;;;1.70;;
64678;SDS011;51094;53.864;27.676;2022-07-29T07:02:50;1.00;;;1.00;;
64678;SDS011;51094;53.864;27.676;2022-07-29T07:05:17;0.70;;;0.70;;
64678;SDS011;51094;53.864;27.676;2022-07-29T07:07:43;0.60;;;0.60;;
64678;SDS011;51094;53.864;27.676;2022-07-29T07:10:10;0.60;;;0.60;;
64678;SDS011;51094;53.864;27.676;2022-07-29T07:12:36;0.50;;;0.50;;
64678;SDS011;51094;53.864;27.676;2022-07-29T07:15:03;0.50;;;0.50;;
64678;SDS011;51094;53.864;27.676;2022-07-29T07:17:30;0.55;;;0.55;;
64678;SDS011;51094;53.864;27.676;2022-07-29T07:19:56;0.50;;;0.50;;
64678;SDS011;51094;53.864;27.676;2022-07-29T07:22:23;0.60;;;0.60;;
64678;SDS011;51094;53.864;27.676;2022-07-29T07:24:50;0.50;;;0.50;;
64678;SDS011;51094;53.864;27.676;2022-07-29T07:27:16;0.50;;;0.50;;
64678;SDS011;51094;53.864;27.676;2022-07-29T07:29:43;0.70;;;0.70;;
64678;SDS011;51094;53.864;27.676;2022-07-29T07:32:09;0.68;;;0.68;;
64678;SDS011;51094;53.864;27.676;2022-07-29T07:34:36;0.90;;;0.90;;
64678;SDS011;51094;53.864;27.676;2022-07-29T07:37:04;0.80;;;0.80;;
64678;SDS011;51094;53.864;27.676;2022-07-29T07:39:31;0.80;;;0.80;;
64678;SDS011;51094;53.864;27.676;2022-07-29T07:41:58;0.73;;;0.73;;
64678;SDS011;51094;53.864;27.676;2022-07-29T07:44:25;0.80;;;0.80;;
64678;SDS011;51094;53.864;27.676;2022-07-29T07:46:51;0.70;;;0.70;;
64678;SDS011;51094;53.864;27.676;2022-07-29T07:49:19;1.20;;;1.20;;
64678;SDS011;51094;53.864;27.676;2022-07-29T07:51:47;0.82;;;0.82;;
64678;SDS011;51094;53.864;27.676;2022-07-29T07:54:16;0.60;;;0.60;;
64678;SDS011;51094;53.864;27.676;2022-07-29T07:56:43;0.40;;;0.40;;
64678;SDS011;51094;53.864;27.676;2022-07-29T07:59:10;0.55;;;0.55;;
64678;SDS011;51094;53.864;27.676;2022-07-29T08:01:36;0.50;;;0.50;;
64678;SDS011;51094;53.864;27.676;2022-07-29T08:04:21;0.40;;;0.40;;
64678;SDS011;51094;53.864;27.676;2022-07-29T08:06:53;0.63;;;0.63;;
64678;SDS011;51094;53.864;27.676;2022-07-29T08:09:20;0.80;;;0.80;;
64678;SDS011;51094;53.864;27.676;2022-07-29T08:11:55;0.60;;;0.60;;
64678;SDS011;51094;53.864;27.676;2022-07-29T08:14:24;0.80;;;0.80;;
64678;SDS011;51094;53.864;27.676;2022-07-29T08:16:50;0.70;;;0.70;;
64678;SDS011;51094;53.864;27.676;2022-07-29T08:19:17;0.90;;;0.90;;
64678;SDS011;51094;53.864;27.676;2022-07-29T08:21:44;0.75;;;0.75;;
64678;SDS011;51094;53.864;27.676;2022-07-29T08:24:11;0.50;;;0.50;;
64678;SDS011;51094;53.864;27.676;2022-07-29T08:26:56;0.40;;;0.40;;
64678;SDS011;51094;53.864;27.676;2022-07-29T08:29:23;0.50;;;0.50;;
64678;SDS011;51094;53.864;27.676;2022-07-29T08:31:49;0.90;;;0.90;;
64678;SDS011;51094;53.864;27.676;2022-07-29T08:34:16;0.77;;;0.77;;
64678;SDS011;51094;53.864;27.676;2022-07-29T08:36:43;0.40;;;0.40;;
64678;SDS011;51094;53.864;27.676;2022-07-29T08:39:15;0.40;;;0.40;;
64678;SDS011;51094;53.864;27.676;2022-07-29T08:41:42;0.40;;;0.40;;
64678;SDS011;51094;53.864;27.676;2022-07-29T08:44:22;0.47;;;0.47;;
64678;SDS011;51094;53.864;27.676;2022-07-29T08:46:56;0.40;;;0.40;;
64678;SDS011;51094;53.864;27.676;2022-07-29T08:49:23;0.35;;;0.35;;
64678;SDS011;51094;53.864;27.676;2022-07-29T08:51:49;0.30;;;0.30;;
64678;SDS011;51094;53.864;27.676;2022-07-29T08:54:18;0.30;;;0.30;;
64678;SDS011;51094;53.864;27.676;2022-07-29T08:56:48;0.30;;;0.30;;
64678;SDS011;51094;53.864;27.676;2022-07-29T08:59:17;0.30;;;0.30;;
64678;SDS011;51094;53.864;27.676;2022-07-29T09:01:48;0.30;;;0.30;;
64678;SDS011;51094;53.864;27.676;2022-07-29T09:04:16;0.28;;;0.28;;
64678;SDS011;51094;53.864;27.676;2022-07-29T09:06:46;0.28;;;0.28;;
64678;SDS011;51094;53.864;27.676;2022-07-29T09:09:14;0.30;;;0.30;;
64678;SDS011;51094;53.864;27.676;2022-07-29T09:11:41;0.28;;;0.28;;
64678;SDS011;51094;53.864;27.676;2022-07-29T09:14:10;0.50;;;0.50;;
64678;SDS011;51094;53.864;27.676;2022-07-29T09:16:56;0.40;;;0.40;;
64678;SDS011;51094;53.864;27.676;2022-07-29T09:19:24;0.50;;;0.50;;
64678;SDS011;51094;53.864;27.676;2022-07-29T09:21:53;0.60;;;0.60;;
64678;SDS011;51094;53.864;27.676;2022-07-29T09:24:27;0.50;;;0.50;;
64678;SDS011;51094;53.864;27.676;2022-07-29T09:27:10;0.30;;;0.30;;
64678;SDS011;51094;53.864;27.676;2022-07-29T09:30:04;0.40;;;0.40;;
64678;SDS011;51094;53.864;27.676;2022-07-29T09:32:33;0.40;;;0.40;;
64678;SDS011;51094;53.864;27.676;2022-07-29T09:35:20;0.30;;;0.30;;
64678;SDS011;51094;53.864;27.676;2022-07-29T09:37:49;0.30;;;0.30;;
64678;SDS011;51094;53.864;27.676;2022-07-29T09:40:26;0.30;;;0.30;;
64678;SDS011;51094;53.864;27.676;2022-07-29T09:42:54;0.20;;;0.20;;
64678;SDS011;51094;53.864;27.676;2022-07-29T09:45:30;0.30;;;0.30;;
64678;SDS011;51094;53.864;27.676;2022-07-29T09:47:58;0.30;;;0.30;;
64678;SDS011;51094;53.864;27.676;2022-07-29T09:50:36;0.20;;;0.20;;
64678;SDS011;51094;53.864;27.676;2022-07-29T09:53:03;0.40;;;0.40;;
64678;SDS011;51094;53.864;27.676;2022-07-29T09:55:30;0.30;;;0.30;;
64678;SDS011;51094;53.864;27.676;2022-07-29T10:00:44;0.30;;;0.30;;
64678;SDS011;51094;53.864;27.676;2022-07-29T10:03:12;0.30;;;0.30;;
64678;SDS011;51094;53.864;27.676;2022-07-29T10:05:39;0.30;;;0.30;;
64678;SDS011;51094;53.864;27.676;2022-07-29T10:08:08;1.40;;;1.40;;
64678;SDS011;51094;53.864;27.676;2022-07-29T10:10:37;1.30;;;1.30;;
64678;SDS011;51094;53.864;27.676;2022-07-29T10:13:10;0.70;;;0.70;;
64678;SDS011;51094;53.864;27.676;2022-07-29T10:15:42;0.40;;;0.40;;
64678;SDS011;51094;53.864;27.676;2022-07-29T10:18:12;0.30;;;0.30;;
64678;SDS011;51094;53.864;27.676;2022-07-29T10:20:40;0.30;;;0.30;;
64678;SDS011;51094;53.864;27.676;2022-07-29T10:23:08;0.40;;;0.40;;
64678;SDS011;51094;53.864;27.676;2022-07-29T10:25:35;0.30;;;0.30;;
64678;SDS011;51094;53.864;27.676;2022-07-29T10:28:02;0.30;;;0.30;;
64678;SDS011;51094;53.864;27.676;2022-07-29T10:30:29;0.30;;;0.30;;
64678;SDS011;51094;53.864;27.676;2022-07-29T10:44:21;1.10;;;1.10;;
64678;SDS011;51094;53.864;27.676;2022-07-29T10:46:51;0.90;;;0.90;;
64678;SDS011;51094;53.864;27.676;2022-07-29T10:49:22;0.60;;;0.60;;
64678;SDS011;51094;53.864;27.676;2022-07-29T10:52:05;0.70;;;0.70;;
64678;SDS011;51094;53.864;27.676;2022-07-29T11:02:42;0.80;;;0.80;;
64678;SDS011;51094;53.864;27.676;2022-07-29T11:08:17;0.60;;;0.60;;
64678;SDS011;51094;53.864;27.676;2022-07-29T11:10:46;0.70;;;0.70;;
64678;SDS011;51094;53.864;27.676;2022-07-29T11:16:14;0.90;;;0.90;;
64678;SDS011;51094;53.864;27.676;2022-07-29T11:21:34;0.40;;;0.40;;
64678;SDS011;51094;53.864;27.676;2022-07-29T11:24:22;0.30;;;0.30;;
64678;SDS011;51094;53.864;27.676;2022-07-29T11:29:56;0.30;;;0.30;;
64678;SDS011;51094;53.864;27.676;2022-07-29T11:32:34;0.40;;;0.40;;
64678;SDS011;51094;53.864;27.676;2022-07-29T11:35:14;0.40;;;0.40;;
64678;SDS011;51094;53.864;27.676;2022-07-29T11:37:44;0.40;;;0.40;;
64678;SDS011;51094;53.864;27.676;2022-07-29T11:40:23;0.47;;;0.47;;
64678;SDS011;51094;53.864;27.676;2022-07-29T11:45:18;0.40;;;0.40;;
64678;SDS011;51094;53.864;27.676;2022-07-29T11:48:15;0.40;;;0.40;;
64678;SDS011;51094;53.864;27.676;2022-07-29T11:50:57;0.40;;;0.40;;
64678;SDS011;51094;53.864;27.676;2022-07-29T11:53:25;0.50;;;0.50;;
64678;SDS011;51094;53.864;27.676;2022-07-29T11:55:58;0.45;;;0.45;;
64678;SDS011;51094;53.864;27.676;2022-07-29T11:58:28;0.40;;;0.40;;
64678;SDS011;51094;53.864;27.676;2022-07-29T12:00:55;0.50;;;0.50;;
64678;SDS011;51094;53.864;27.676;2022-07-29T12:03:24;0.60;;;0.60;;
64678;SDS011;51094;53.864;27.676;2022-07-29T12:06:02;0.60;;;0.60;;
64678;SDS011;51094;53.864;27.676;2022-07-29T12:08:41;0.80;;;0.80;;
64678;SDS011;51094;53.864;27.676;2022-07-29T12:11:16;0.90;;;0.90;;
64678;SDS011;51094;53.864;27.676;2022-07-29T12:13:48;0.60;;;0.60;;
64678;SDS011;51094;53.864;27.676;2022-07-29T12:16:17;0.75;;;0.75;;
64678;SDS011;51094;53.864;27.676;2022-07-29T12:18:58;0.60;;;0.60;;
64678;SDS011;51094;53.864;27.676;2022-07-29T12:21:51;0.60;;;0.60;;
64678;SDS011;51094;53.864;27.676;2022-07-29T12:24:24;0.70;;;0.70;;
64678;SDS011;51094;53.864;27.676;2022-07-29T12:26:59;0.60;;;0.60;;
64678;SDS011;51094;53.864;27.676;2022-07-29T12:29:27;0.60;;;0.60;;
64678;SDS011;51094;53.864;27.676;2022-07-29T12:32:01;0.70;;;0.70;;
64678;SDS011;51094;53.864;27.676;2022-07-29T12:34:29;0.70;;;0.70;;
64678;SDS011;51094;53.864;27.676;2022-07-29T12:36:57;0.70;;;0.70;;
64678;SDS011;51094;53.864;27.676;2022-07-29T12:39:24;0.73;;;0.73;;
64678;SDS011;51094;53.864;27.676;2022-07-29T12:41:54;0.70;;;0.70;;
64678;SDS011;51094;53.864;27.676;2022-07-29T12:47:14;1.00;;;1.00;;
64678;SDS011;51094;53.864;27.676;2022-07-29T12:49:41;0.90;;;0.90;;
64678;SDS011;51094;53.864;27.676;2022-07-29T12:52:30;0.60;;;0.60;;
64678;SDS011;51094;53.864;27.676;2022-07-29T12:54:57;0.50;;;0.50;;
64678;SDS011;51094;53.864;27.676;2022-07-29T12:59:59;0.32;;;0.32;;
64678;SDS011;51094;53.864;27.676;2022-07-29T13:02:27;0.30;;;0.30;;
64678;SDS011;51094;53.864;27.676;2022-07-29T13:04:55;0.25;;;0.25;;
64678;SDS011;51094;53.864;27.676;2022-07-29T13:07:23;0.22;;;0.22;;
64678;SDS011;51094;53.864;27.676;2022-07-29T13:10:21;0.52;;;0.52;;
64678;SDS011;51094;53.864;27.676;2022-07-29T13:13:11;0.38;;;0.38;;
64678;SDS011;51094;53.864;27.676;2022-07-29T13:18:17;0.25;;;0.25;;
64678;SDS011;51094;53.864;27.676;2022-07-29T13:21:12;0.20;;;0.20;;
64678;SDS011;51094;53.864;27.676;2022-07-29T13:23:42;0.30;;;0.30;;
64678;SDS011;51094;53.864;27.676;2022-07-29T13:26:09;0.40;;;0.40;;
64678;SDS011;51094;53.864;27.676;2022-07-29T13:28:37;0.30;;;0.30;;
64678;SDS011;51094;53.864;27.676;2022-07-29T13:31:04;0.38;;;0.38;;
64678;SDS011;51094;53.864;27.676;2022-07-29T13:33:31;0.32;;;0.32;;
64678;SDS011;51094;53.864;27.676;2022-07-29T13:35:58;0.20;;;0.20;;
64678;SDS011;51094;53.864;27.676;2022-07-29T13:38:24;0.30;;;0.30;;
64678;SDS011;51094;53.864;27.676;2022-07-29T13:40:56;0.20;;;0.20;;
64678;SDS011;51094;53.864;27.676;2022-07-29T13:43:23;0.30;;;0.30;;
64678;SDS011;51094;53.864;27.676;2022-07-29T13:45:50;0.30;;;0.30;;
64678;SDS011;51094;53.864;27.676;2022-07-29T13:48:16;0.30;;;0.30;;
64678;SDS011;51094;53.864;27.676;2022-07-29T13:50:43;0.40;;;0.40;;
64678;SDS011;51094;53.864;27.676;2022-07-29T13:53:10;0.30;;;0.30;;
64678;SDS011;51094;53.864;27.676;2022-07-29T13:55:43;0.30;;;0.30;;
64678;SDS011;51094;53.864;27.676;2022-07-29T13:58:10;0.22;;;0.22;;
64678;SDS011;51094;53.864;27.676;2022-07-29T14:00:37;0.30;;;0.30;;
64678;SDS011;51094;53.864;27.676;2022-07-29T14:03:03;0.20;;;0.20;;
64678;SDS011;51094;53.864;27.676;2022-07-29T14:05:30;0.30;;;0.30;;
64678;SDS011;51094;53.864;27.676;2022-07-29T14:07:57;0.30;;;0.30;;
64678;SDS011;51094;53.864;27.676;2022-07-29T14:10:23;0.20;;;0.20;;
64678;SDS011;51094;53.864;27.676;2022-07-29T14:15:19;0.30;;;0.30;;
64678;SDS011;51094;53.864;27.676;2022-07-29T14:17:46;0.30;;;0.30;;
64678;SDS011;51094;53.864;27.676;2022-07-29T14:20:13;0.30;;;0.30;;
64678;SDS011;51094;53.864;27.676;2022-07-29T14:22:42;0.30;;;0.30;;
64678;SDS011;51094;53.864;27.676;2022-07-29T14:25:10;0.32;;;0.32;;
64678;SDS011;51094;53.864;27.676;2022-07-29T14:27:41;0.20;;;0.20;;
64678;SDS011;51094;53.864;27.676;2022-07-29T14:30:09;0.20;;;0.20;;
64678;SDS011;51094;53.864;27.676;2022-07-29T14:32:36;0.20;;;0.20;;
64678;SDS011;51094;53.864;27.676;2022-07-29T14:35:04;0.30;;;0.30;;
64678;SDS011;51094;53.864;27.676;2022-07-29T14:37:31;0.30;;;0.30;;
64678;SDS011;51094;53.864;27.676;2022-07-29T14:40:06;0.30;;;0.30;;
64678;SDS011;51094;53.864;27.676;2022-07-29T14:42:33;0.40;;;0.40;;
64678;SDS011;51094;53.864;27.676;2022-07-29T14:45:00;0.40;;;0.40;;
64678;SDS011;51094;53.864;27.676;2022-07-29T14:47:27;0.38;;;0.38;;
64678;SDS011;51094;53.864;27.676;2022-07-29T14:49:53;0.43;;;0.43;;
64678;SDS011;51094;53.864;27.676;2022-07-29T14:52:20;0.32;;;0.32;;
64678;SDS011;51094;53.864;27.676;2022-07-29T14:54:47;0.40;;;0.40;;
64678;SDS011;51094;53.864;27.676;2022-07-29T14:57:13;0.38;;;0.38;;
64678;SDS011;51094;53.864;27.676;2022-07-29T14:59:40;0.30;;;0.30;;
64678;SDS011;51094;53.864;27.676;2022-07-29T15:02:06;0.30;;;0.30;;
64678;SDS011;51094;53.864;27.676;2022-07-29T15:04:33;0.40;;;0.40;;
64678;SDS011;51094;53.864;27.676;2022-07-29T15:07:01;0.50;;;0.50;;
64678;SDS011;51094;53.864;27.676;2022-07-29T15:09:28;0.40;;;0.40;;
64678;SDS011;51094;53.864;27.676;2022-07-29T15:11:54;0.32;;;0.32;;
64678;SDS011;51094;53.864;27.676;2022-07-29T15:14:22;0.43;;;0.43;;
64678;SDS011;51094;53.864;27.676;2022-07-29T15:16:49;0.50;;;0.50;;
64678;SDS011;51094;53.864;27.676;2022-07-29T15:19:18;0.47;;;0.47;;
64678;SDS011;51094;53.864;27.676;2022-07-29T15:21:45;0.40;;;0.40;;
64678;SDS011;51094;53.864;27.676;2022-07-29T15:24:14;0.38;;;0.38;;
64678;SDS011;51094;53.864;27.676;2022-07-29T15:26:45;0.40;;;0.40;;
64678;SDS011;51094;53.864;27.676;2022-07-29T15:29:12;0.25;;;0.25;;
64678;SDS011;51094;53.864;27.676;2022-07-29T15:31:40;0.35;;;0.35;;
64678;SDS011;51094;53.864;27.676;2022-07-29T15:34:07;0.30;;;0.30;;
64678;SDS011;51094;53.864;27.676;2022-07-29T15:36:33;0.30;;;0.30;;
64678;SDS011;51094;53.864;27.676;2022-07-29T15:39:18;0.30;;;0.30;;
64678;SDS011;51094;53.864;27.676;2022-07-29T15:41:46;0.38;;;0.38;;
64678;SDS011;51094;53.864;27.676;2022-07-29T15:44:13;0.30;;;0.30;;
64678;SDS011;51094;53.864;27.676;2022-07-29T15:46:40;0.40;;;0.40;;
64678;SDS011;51094;53.864;27.676;2022-07-29T15:49:26;0.30;;;0.30;;
64678;SDS011;51094;53.864;27.676;2022-07-29T15:52:14;0.40;;;0.40;;
64678;SDS011;51094;53.864;27.676;2022-07-29T15:54:50;0.40;;;0.40;;
64678;SDS011;51094;53.864;27.676;2022-07-29T15:57:17;0.20;;;0.20;;